NCAR-RAP Real-Time Weather Data

Output produced by METARs form (06 May 2021  15:59 UTC)
found at http://weather.rap.ucar.edu/surface/
 
KFSM 061553Z 27010KT 10SM CLR 21/11 A3022 RMK AO2 SLP230 T02110106
KFSM 061453Z 25006KT 10SM CLR 19/11 A3023 RMK AO2 SLP234 T01890111 51008
KFSM 061353Z 28006KT 10SM CLR 17/11 A3023 RMK AO2 SLP234 T01670111
KFSM 061253Z 26003KT 10SM CLR 14/11 A3022 RMK AO2 SLP231 T01390111
KFSM 061153Z 00000KT 10SM CLR 11/09 A3021 RMK AO2 SLP227 T01060094 10156 20106 53017
KFSM 061053Z 00000KT 10SM CLR 11/09 A3019 RMK AO2 SLP220 T01110094
KFSM 060953Z AUTO 00000KT 10SM CLR 13/10 A3017 RMK AO2 SLP214 T01280100
KFSM 060853Z AUTO 00000KT 10SM CLR 12/09 A3016 RMK AO2 SLP209 T01220094 51003
KFSM 060753Z AUTO 18003KT 10SM CLR 14/11 A3016 RMK AO2 SLP209 T01390106
KFSM 060653Z AUTO 34010G15KT 10SM CLR 15/09 A3016 RMK AO2 PRESRR SLP209 T01500089
KFSM 060553Z AUTO 17006KT 10SM CLR 16/10 A3015 RMK AO2 PRESFR SLP206 T01560100 10228 20144 402330072 50004
KFSM 060453Z AUTO 00000KT 10SM BKN100 15/11 A3020 RMK AO2 SLP222 T01500111
KFSM 060353Z AUTO 22003KT 10SM CLR 16/11 A3016 RMK AO2 SLP211 T01560106
KFSM 060253Z 00000KT 10SM CLR 17/10 A3014 RMK AO2 SLP203 T01670100 53012
KFSM 060153Z 29003KT 10SM CLR 17/09 A3012 RMK AO2 SLP198 T01720094